METAR Data
IDs: Format: Raw Decoded Include TAF

Data at: 1855 UTC 26 Sep 2021

METAR for:KLRO (Mt Pleasant Rgnl, SC, US)
Text:KLRO 261535Z AUTO 00000KT 10SM CLR 25/15 A3013 RMK AO2
Temperature: 25.0°C ( 77°F)
Dewpoint: 15.0°C ( 59°F) [RH = 54%]
Pressure (altimeter):30.13 inches Hg (1020.4 mb)
Winds:calm
Visibility:10 or more sm (16+ km)
Ceiling:at least 12,000 feet AGL
Clouds:sky clear below 12,000 feet AGL
QC Flag:automated observation with no human augmentation

TAF for:KLRO (Mt Pleasant Rgnl, SC, US)
Text:No data found